EGVN METAR and TAF | Updated Today

EGVN METAR

RAF Brize Norton

Observation time: 22 min. ago

EGVN 052020Z 08001KT CAVOK 00/M02 Q1046 NOSIG RMK BLU BLU

Need help? Read our tutorial on how to read METARs or read the parsed version below.

RAF Brize Norton (EGVN) METAR

  • Weather conditions on Sun, 05 Feb 2023 20:20:00 +0000 (22 min. ago):
  • Present conditions: Dry
  • Clouds: Clear skies
  • Visibility: Greater than 10 km
  • Wind: 80 degrees at 1 knots
  • Temperature: 0 celsius
  • Dew point: -2 celsius
  • Pressure: 1046 millibars
  • Remarks: BLU BLU


Useful to know...

EGVN TAF

RAF Brize Norton

TAF EGVN 051640Z 0518/0618 VRB04KT CAVOK PROB30 0522/0602 5000 BR PROB40 0602/0611 4000 BR PROB30 0603/0610 1500 BR MIFG
Observation time: 4:02 hr. ago
Need help? Read our tutorial on how to read TAFs or read the parsed version below.

Parsed version of TAF for RAF Brize Norton (EGVN)

  • From 05 February at 18:00 UTC, to day 06 of the month at 18:00 UTC
  • Visibility: Greater than 10 km
  • Wind: Variable at 4
  • From 05 February at 22:00 UTC, to day 06 of the month at 02:00 UTC
    Probability of 30%
  • Visibility: 5000 meters
  • Other: Mist
  • From 06 February at 02:00 UTC, to day 06 of the month at 11:00 UTC
    Probability of 40%
  • Visibility: 4000 meters
  • Other: Mist
  • From 06 February at 03:00 UTC, to day 06 of the month at 10:00 UTC
    Probability of 30%
  • Visibility: 1500 meters
  • Other: Mist; shallow fog